sensor_id;sensor_type;location;lat;lon;timestamp;P1;durP1;ratioP1;P2;durP2;ratioP2
69991;SDS011;57332;51.320;-0.580;2022-12-07T00:01:34;13.45;;;6.13;;
69991;SDS011;57332;51.320;-0.580;2022-12-07T00:04:02;16.63;;;6.07;;
69991;SDS011;57332;51.320;-0.580;2022-12-07T00:06:33;15.60;;;5.93;;
69991;SDS011;57332;51.320;-0.580;2022-12-07T00:09:00;15.00;;;6.53;;
69991;SDS011;57332;51.320;-0.580;2022-12-07T00:11:27;12.65;;;6.32;;
69991;SDS011;57332;51.320;-0.580;2022-12-07T00:13:55;16.02;;;6.18;;
69991;SDS011;57332;51.320;-0.580;2022-12-07T00:16:23;16.55;;;6.90;;
69991;SDS011;57332;51.320;-0.580;2022-12-07T00:18:50;16.13;;;6.35;;
69991;SDS011;57332;51.320;-0.580;2022-12-07T00:21:18;14.68;;;6.13;;
69991;SDS011;57332;51.320;-0.580;2022-12-07T00:23:46;17.00;;;5.88;;
69991;SDS011;57332;51.320;-0.580;2022-12-07T00:28:46;15.85;;;6.15;;
69991;SDS011;57332;51.320;-0.580;2022-12-07T00:31:14;13.15;;;5.25;;
69991;SDS011;57332;51.320;-0.580;2022-12-07T00:33:41;12.50;;;6.10;;
69991;SDS011;57332;51.320;-0.580;2022-12-07T00:36:10;17.00;;;5.68;;
69991;SDS011;57332;51.320;-0.580;2022-12-07T00:38:37;16.40;;;6.45;;
69991;SDS011;57332;51.320;-0.580;2022-12-07T00:41:05;16.23;;;6.30;;
69991;SDS011;57332;51.320;-0.580;2022-12-07T00:43:33;15.52;;;6.70;;
69991;SDS011;57332;51.320;-0.580;2022-12-07T00:46:00;15.35;;;5.70;;
69991;SDS011;57332;51.320;-0.580;2022-12-07T00:48:27;13.20;;;5.57;;
69991;SDS011;57332;51.320;-0.580;2022-12-07T00:50:54;13.25;;;5.18;;
69991;SDS011;57332;51.320;-0.580;2022-12-07T00:53:21;18.42;;;5.68;;
69991;SDS011;57332;51.320;-0.580;2022-12-07T00:55:47;15.48;;;6.30;;
69991;SDS011;57332;51.320;-0.580;2022-12-07T00:58:15;13.85;;;6.05;;
69991;SDS011;57332;51.320;-0.580;2022-12-07T01:00:42;11.98;;;5.07;;
69991;SDS011;57332;51.320;-0.580;2022-12-07T01:03:10;12.40;;;5.82;;
69991;SDS011;57332;51.320;-0.580;2022-12-07T01:05:37;15.40;;;5.78;;
69991;SDS011;57332;51.320;-0.580;2022-12-07T01:08:05;15.80;;;5.93;;
69991;SDS011;57332;51.320;-0.580;2022-12-07T01:10:32;13.13;;;5.50;;
69991;SDS011;57332;51.320;-0.580;2022-12-07T01:12:59;13.30;;;5.93;;
69991;SDS011;57332;51.320;-0.580;2022-12-07T01:15:26;12.88;;;5.57;;
69991;SDS011;57332;51.320;-0.580;2022-12-07T01:17:53;15.38;;;5.55;;
69991;SDS011;57332;51.320;-0.580;2022-12-07T01:20:21;15.23;;;6.60;;
69991;SDS011;57332;51.320;-0.580;2022-12-07T01:22:48;13.13;;;5.28;;
69991;SDS011;57332;51.320;-0.580;2022-12-07T01:25:15;13.32;;;5.18;;
69991;SDS011;57332;51.320;-0.580;2022-12-07T01:27:42;13.88;;;5.13;;
69991;SDS011;57332;51.320;-0.580;2022-12-07T01:30:10;12.57;;;5.55;;
69991;SDS011;57332;51.320;-0.580;2022-12-07T01:32:37;15.50;;;5.82;;
69991;SDS011;57332;51.320;-0.580;2022-12-07T01:35:04;12.82;;;5.10;;
69991;SDS011;57332;51.320;-0.580;2022-12-07T01:37:37;16.15;;;6.35;;
69991;SDS011;57332;51.320;-0.580;2022-12-07T01:40:05;15.57;;;5.60;;
69991;SDS011;57332;51.320;-0.580;2022-12-07T01:42:33;15.10;;;5.72;;
69991;SDS011;57332;51.320;-0.580;2022-12-07T01:47:59;14.75;;;5.63;;
69991;SDS011;57332;51.320;-0.580;2022-12-07T01:50:26;16.15;;;5.80;;
69991;SDS011;57332;51.320;-0.580;2022-12-07T01:52:55;14.45;;;6.15;;
69991;SDS011;57332;51.320;-0.580;2022-12-07T01:55:22;11.77;;;5.25;;
69991;SDS011;57332;51.320;-0.580;2022-12-07T01:57:50;14.85;;;5.75;;
69991;SDS011;57332;51.320;-0.580;2022-12-07T02:00:18;15.35;;;5.85;;
69991;SDS011;57332;51.320;-0.580;2022-12-07T02:05:15;16.88;;;5.47;;
69991;SDS011;57332;51.320;-0.580;2022-12-07T02:07:43;12.35;;;5.15;;
69991;SDS011;57332;51.320;-0.580;2022-12-07T02:10:19;13.75;;;5.32;;
69991;SDS011;57332;51.320;-0.580;2022-12-07T02:12:47;12.77;;;4.65;;
69991;SDS011;57332;51.320;-0.580;2022-12-07T02:15:15;11.60;;;4.60;;
69991;SDS011;57332;51.320;-0.580;2022-12-07T02:17:46;12.10;;;4.10;;
69991;SDS011;57332;51.320;-0.580;2022-12-07T02:30:31;10.02;;;4.05;;
69991;SDS011;57332;51.320;-0.580;2022-12-07T02:36:01;11.02;;;4.60;;
69991;SDS011;57332;51.320;-0.580;2022-12-07T02:41:18;12.50;;;4.65;;
69991;SDS011;57332;51.320;-0.580;2022-12-07T02:43:47;12.80;;;4.47;;
69991;SDS011;57332;51.320;-0.580;2022-12-07T02:46:21;10.57;;;4.68;;
69991;SDS011;57332;51.320;-0.580;2022-12-07T02:48:48;15.25;;;4.20;;
69991;SDS011;57332;51.320;-0.580;2022-12-07T02:51:19;10.23;;;4.38;;
69991;SDS011;57332;51.320;-0.580;2022-12-07T02:53:46;9.27;;;3.90;;
69991;SDS011;57332;51.320;-0.580;2022-12-07T02:59:02;11.73;;;4.75;;
69991;SDS011;57332;51.320;-0.580;2022-12-07T03:06:49;12.40;;;4.82;;
69991;SDS011;57332;51.320;-0.580;2022-12-07T03:09:20;11.35;;;4.35;;
69991;SDS011;57332;51.320;-0.580;2022-12-07T03:11:49;9.35;;;4.47;;
69991;SDS011;57332;51.320;-0.580;2022-12-07T03:16:55;10.30;;;4.60;;
69991;SDS011;57332;51.320;-0.580;2022-12-07T03:19:24;13.02;;;4.30;;
69991;SDS011;57332;51.320;-0.580;2022-12-07T03:22:07;12.88;;;5.28;;
69991;SDS011;57332;51.320;-0.580;2022-12-07T03:24:36;12.93;;;5.13;;
69991;SDS011;57332;51.320;-0.580;2022-12-07T03:27:04;11.23;;;4.18;;
69991;SDS011;57332;51.320;-0.580;2022-12-07T03:30:07;13.02;;;4.90;;
69991;SDS011;57332;51.320;-0.580;2022-12-07T03:35:03;10.70;;;3.83;;
69991;SDS011;57332;51.320;-0.580;2022-12-07T03:37:33;11.43;;;4.82;;
69991;SDS011;57332;51.320;-0.580;2022-12-07T03:40:07;13.55;;;5.00;;
69991;SDS011;57332;51.320;-0.580;2022-12-07T03:42:38;11.23;;;4.45;;
69991;SDS011;57332;51.320;-0.580;2022-12-07T03:45:05;14.05;;;5.00;;
69991;SDS011;57332;51.320;-0.580;2022-12-07T03:47:33;10.82;;;4.65;;
69991;SDS011;57332;51.320;-0.580;2022-12-07T03:57:47;13.15;;;4.78;;
69991;SDS011;57332;51.320;-0.580;2022-12-07T04:00:16;10.05;;;4.60;;
69991;SDS011;57332;51.320;-0.580;2022-12-07T04:02:44;10.63;;;5.15;;
69991;SDS011;57332;51.320;-0.580;2022-12-07T04:05:11;11.40;;;5.20;;
69991;SDS011;57332;51.320;-0.580;2022-12-07T04:07:38;10.43;;;4.50;;
69991;SDS011;57332;51.320;-0.580;2022-12-07T04:10:05;10.27;;;4.30;;
69991;SDS011;57332;51.320;-0.580;2022-12-07T04:12:32;13.27;;;5.28;;
69991;SDS011;57332;51.320;-0.580;2022-12-07T04:14:59;11.70;;;4.68;;
69991;SDS011;57332;51.320;-0.580;2022-12-07T04:17:26;12.07;;;4.60;;
69991;SDS011;57332;51.320;-0.580;2022-12-07T04:19:52;10.43;;;4.32;;
69991;SDS011;57332;51.320;-0.580;2022-12-07T04:22:19;14.23;;;4.93;;
69991;SDS011;57332;51.320;-0.580;2022-12-07T04:24:46;12.77;;;4.60;;
69991;SDS011;57332;51.320;-0.580;2022-12-07T04:27:13;13.05;;;5.10;;
69991;SDS011;57332;51.320;-0.580;2022-12-07T04:29:39;13.07;;;5.25;;
69991;SDS011;57332;51.320;-0.580;2022-12-07T04:32:06;13.23;;;4.70;;
69991;SDS011;57332;51.320;-0.580;2022-12-07T04:34:33;13.98;;;5.05;;
69991;SDS011;57332;51.320;-0.580;2022-12-07T04:37:00;11.27;;;4.68;;
69991;SDS011;57332;51.320;-0.580;2022-12-07T04:39:27;11.25;;;4.82;;
69991;SDS011;57332;51.320;-0.580;2022-12-07T04:41:55;10.73;;;5.25;;
69991;SDS011;57332;51.320;-0.580;2022-12-07T04:44:22;12.90;;;5.40;;
69991;SDS011;57332;51.320;-0.580;2022-12-07T04:46:49;12.00;;;5.10;;
69991;SDS011;57332;51.320;-0.580;2022-12-07T04:49:16;14.35;;;5.05;;
69991;SDS011;57332;51.320;-0.580;2022-12-07T04:51:44;14.80;;;5.30;;
69991;SDS011;57332;51.320;-0.580;2022-12-07T04:54:11;11.18;;;4.93;;
69991;SDS011;57332;51.320;-0.580;2022-12-07T04:56:38;13.10;;;5.07;;
69991;SDS011;57332;51.320;-0.580;2022-12-07T04:59:05;14.95;;;4.97;;
69991;SDS011;57332;51.320;-0.580;2022-12-07T05:01:32;12.45;;;5.57;;
69991;SDS011;57332;51.320;-0.580;2022-12-07T05:03:59;14.93;;;4.97;;
69991;SDS011;57332;51.320;-0.580;2022-12-07T05:06:26;14.32;;;5.60;;
69991;SDS011;57332;51.320;-0.580;2022-12-07T05:08:53;14.63;;;5.30;;
69991;SDS011;57332;51.320;-0.580;2022-12-07T05:11:20;15.25;;;5.03;;
69991;SDS011;57332;51.320;-0.580;2022-12-07T05:14:12;12.90;;;4.50;;
69991;SDS011;57332;51.320;-0.580;2022-12-07T05:16:39;11.90;;;5.38;;
69991;SDS011;57332;51.320;-0.580;2022-12-07T05:19:06;15.10;;;5.50;;
69991;SDS011;57332;51.320;-0.580;2022-12-07T05:21:33;17.33;;;5.60;;
69991;SDS011;57332;51.320;-0.580;2022-12-07T05:24:01;13.13;;;5.25;;
69991;SDS011;57332;51.320;-0.580;2022-12-07T05:26:28;10.45;;;4.88;;
69991;SDS011;57332;51.320;-0.580;2022-12-07T05:28:55;12.65;;;4.85;;
69991;SDS011;57332;51.320;-0.580;2022-12-07T05:31:22;13.98;;;5.95;;
69991;SDS011;57332;51.320;-0.580;2022-12-07T05:33:50;12.02;;;4.82;;
69991;SDS011;57332;51.320;-0.580;2022-12-07T05:36:16;16.45;;;6.03;;
69991;SDS011;57332;51.320;-0.580;2022-12-07T05:38:43;10.93;;;5.13;;
69991;SDS011;57332;51.320;-0.580;2022-12-07T05:41:12;11.52;;;4.65;;
69991;SDS011;57332;51.320;-0.580;2022-12-07T05:43:59;11.02;;;5.30;;
69991;SDS011;57332;51.320;-0.580;2022-12-07T05:46:26;13.80;;;5.10;;
69991;SDS011;57332;51.320;-0.580;2022-12-07T05:48:53;14.10;;;5.75;;
69991;SDS011;57332;51.320;-0.580;2022-12-07T05:51:20;10.55;;;4.53;;
69991;SDS011;57332;51.320;-0.580;2022-12-07T05:53:47;12.48;;;5.90;;
69991;SDS011;57332;51.320;-0.580;2022-12-07T05:56:13;15.32;;;4.97;;
69991;SDS011;57332;51.320;-0.580;2022-12-07T05:58:40;13.50;;;5.03;;
69991;SDS011;57332;51.320;-0.580;2022-12-07T06:01:26;12.57;;;5.05;;
69991;SDS011;57332;51.320;-0.580;2022-12-07T06:03:53;12.13;;;5.15;;
69991;SDS011;57332;51.320;-0.580;2022-12-07T06:06:19;12.30;;;5.32;;
69991;SDS011;57332;51.320;-0.580;2022-12-07T06:08:46;15.25;;;5.70;;
69991;SDS011;57332;51.320;-0.580;2022-12-07T06:11:13;12.93;;;4.78;;
69991;SDS011;57332;51.320;-0.580;2022-12-07T06:13:59;11.02;;;4.80;;
69991;SDS011;57332;51.320;-0.580;2022-12-07T06:16:25;13.05;;;5.53;;
69991;SDS011;57332;51.320;-0.580;2022-12-07T06:18:52;12.82;;;5.20;;
69991;SDS011;57332;51.320;-0.580;2022-12-07T06:21:19;12.90;;;5.68;;
69991;SDS011;57332;51.320;-0.580;2022-12-07T06:23:46;17.23;;;6.05;;
69991;SDS011;57332;51.320;-0.580;2022-12-07T06:26:14;16.80;;;6.15;;
69991;SDS011;57332;51.320;-0.580;2022-12-07T06:28:41;11.82;;;5.43;;
69991;SDS011;57332;51.320;-0.580;2022-12-07T06:31:08;16.50;;;6.25;;
69991;SDS011;57332;51.320;-0.580;2022-12-07T06:33:39;31.10;;;10.27;;
69991;SDS011;57332;51.320;-0.580;2022-12-07T06:36:06;17.20;;;6.70;;
69991;SDS011;57332;51.320;-0.580;2022-12-07T06:38:33;14.55;;;5.65;;
69991;SDS011;57332;51.320;-0.580;2022-12-07T06:41:00;14.95;;;4.57;;
69991;SDS011;57332;51.320;-0.580;2022-12-07T06:43:27;13.98;;;6.25;;
69991;SDS011;57332;51.320;-0.580;2022-12-07T06:45:54;12.10;;;5.47;;
69991;SDS011;57332;51.320;-0.580;2022-12-07T06:48:21;13.20;;;5.10;;
69991;SDS011;57332;51.320;-0.580;2022-12-07T06:50:48;12.18;;;4.22;;
69991;SDS011;57332;51.320;-0.580;2022-12-07T06:53:20;11.77;;;4.82;;
69991;SDS011;57332;51.320;-0.580;2022-12-07T06:55:47;12.00;;;4.53;;
69991;SDS011;57332;51.320;-0.580;2022-12-07T06:58:14;12.80;;;4.90;;
69991;SDS011;57332;51.320;-0.580;2022-12-07T07:00:41;12.30;;;4.80;;
69991;SDS011;57332;51.320;-0.580;2022-12-07T07:03:08;17.17;;;5.28;;
69991;SDS011;57332;51.320;-0.580;2022-12-07T07:05:35;15.82;;;5.38;;
69991;SDS011;57332;51.320;-0.580;2022-12-07T07:08:02;12.23;;;4.55;;
69991;SDS011;57332;51.320;-0.580;2022-12-07T07:10:49;12.75;;;4.90;;
69991;SDS011;57332;51.320;-0.580;2022-12-07T07:13:16;11.93;;;5.50;;
69991;SDS011;57332;51.320;-0.580;2022-12-07T07:15:43;12.57;;;5.30;;
69991;SDS011;57332;51.320;-0.580;2022-12-07T07:18:10;14.55;;;5.47;;
69991;SDS011;57332;51.320;-0.580;2022-12-07T07:20:37;16.38;;;5.97;;
69991;SDS011;57332;51.320;-0.580;2022-12-07T07:23:04;14.32;;;5.82;;
69991;SDS011;57332;51.320;-0.580;2022-12-07T07:25:31;13.32;;;5.32;;
69991;SDS011;57332;51.320;-0.580;2022-12-07T07:27:58;13.13;;;5.35;;
69991;SDS011;57332;51.320;-0.580;2022-12-07T07:30:25;11.65;;;5.32;;
69991;SDS011;57332;51.320;-0.580;2022-12-07T07:32:56;14.07;;;5.35;;
69991;SDS011;57332;51.320;-0.580;2022-12-07T07:35:23;10.43;;;4.50;;
69991;SDS011;57332;51.320;-0.580;2022-12-07T07:37:49;14.05;;;5.35;;
69991;SDS011;57332;51.320;-0.580;2022-12-07T07:40:16;11.35;;;4.50;;
69991;SDS011;57332;51.320;-0.580;2022-12-07T07:42:43;12.27;;;4.90;;
69991;SDS011;57332;51.320;-0.580;2022-12-07T07:45:10;13.07;;;5.00;;
69991;SDS011;57332;51.320;-0.580;2022-12-07T07:47:37;12.57;;;5.18;;
69991;SDS011;57332;51.320;-0.580;2022-12-07T07:50:04;11.00;;;4.50;;
69991;SDS011;57332;51.320;-0.580;2022-12-07T07:52:31;11.57;;;4.25;;
69991;SDS011;57332;51.320;-0.580;2022-12-07T07:54:58;12.57;;;4.78;;
69991;SDS011;57332;51.320;-0.580;2022-12-07T07:57:25;11.43;;;5.57;;
69991;SDS011;57332;51.320;-0.580;2022-12-07T07:59:52;12.52;;;4.85;;
69991;SDS011;57332;51.320;-0.580;2022-12-07T08:02:21;13.93;;;4.70;;
69991;SDS011;57332;51.320;-0.580;2022-12-07T08:04:48;12.35;;;4.55;;
69991;SDS011;57332;51.320;-0.580;2022-12-07T08:07:15;12.77;;;4.78;;
69991;SDS011;57332;51.320;-0.580;2022-12-07T08:09:42;12.13;;;4.50;;
69991;SDS011;57332;51.320;-0.580;2022-12-07T08:12:09;14.07;;;5.18;;
69991;SDS011;57332;51.320;-0.580;2022-12-07T08:14:36;11.88;;;4.80;;
69991;SDS011;57332;51.320;-0.580;2022-12-07T08:17:02;12.98;;;4.85;;
69991;SDS011;57332;51.320;-0.580;2022-12-07T08:19:29;14.52;;;4.88;;
69991;SDS011;57332;51.320;-0.580;2022-12-07T08:21:56;13.50;;;5.22;;
69991;SDS011;57332;51.320;-0.580;2022-12-07T08:24:23;13.07;;;4.47;;
69991;SDS011;57332;51.320;-0.580;2022-12-07T08:26:51;13.00;;;4.45;;
69991;SDS011;57332;51.320;-0.580;2022-12-07T08:29:18;13.65;;;4.90;;
69991;SDS011;57332;51.320;-0.580;2022-12-07T08:31:45;13.23;;;5.10;;
69991;SDS011;57332;51.320;-0.580;2022-12-07T08:34:12;14.23;;;4.60;;
69991;SDS011;57332;51.320;-0.580;2022-12-07T08:36:39;13.60;;;5.43;;
69991;SDS011;57332;51.320;-0.580;2022-12-07T08:39:06;13.40;;;5.50;;
69991;SDS011;57332;51.320;-0.580;2022-12-07T08:41:53;10.80;;;4.40;;
69991;SDS011;57332;51.320;-0.580;2022-12-07T08:44:20;12.52;;;5.05;;
69991;SDS011;57332;51.320;-0.580;2022-12-07T08:46:48;11.27;;;4.85;;
69991;SDS011;57332;51.320;-0.580;2022-12-07T08:49:25;12.90;;;4.80;;
69991;SDS011;57332;51.320;-0.580;2022-12-07T08:51:54;15.85;;;5.70;;
69991;SDS011;57332;51.320;-0.580;2022-12-07T08:54:21;20.70;;;7.43;;
69991;SDS011;57332;51.320;-0.580;2022-12-07T08:56:48;18.27;;;6.63;;
69991;SDS011;57332;51.320;-0.580;2022-12-07T08:59:24;18.25;;;6.43;;
69991;SDS011;57332;51.320;-0.580;2022-12-07T09:01:52;11.57;;;4.97;;
69991;SDS011;57332;51.320;-0.580;2022-12-07T09:04:19;13.50;;;5.38;;
69991;SDS011;57332;51.320;-0.580;2022-12-07T09:06:47;12.15;;;5.10;;
69991;SDS011;57332;51.320;-0.580;2022-12-07T09:09:14;18.00;;;5.95;;
69991;SDS011;57332;51.320;-0.580;2022-12-07T09:11:41;16.60;;;6.20;;
69991;SDS011;57332;51.320;-0.580;2022-12-07T09:14:08;21.00;;;7.50;;
69991;SDS011;57332;51.320;-0.580;2022-12-07T09:16:35;19.15;;;7.72;;
69991;SDS011;57332;51.320;-0.580;2022-12-07T09:19:02;21.33;;;7.15;;
69991;SDS011;57332;51.320;-0.580;2022-12-07T09:21:29;16.45;;;6.00;;
69991;SDS011;57332;51.320;-0.580;2022-12-07T09:23:55;18.60;;;5.90;;
69991;SDS011;57332;51.320;-0.580;2022-12-07T09:26:22;16.45;;;6.15;;
69991;SDS011;57332;51.320;-0.580;2022-12-07T09:28:49;17.50;;;6.93;;
69991;SDS011;57332;51.320;-0.580;2022-12-07T09:31:16;14.35;;;5.53;;
69991;SDS011;57332;51.320;-0.580;2022-12-07T09:33:55;18.08;;;6.47;;
69991;SDS011;57332;51.320;-0.580;2022-12-07T09:36:22;17.77;;;6.05;;
69991;SDS011;57332;51.320;-0.580;2022-12-07T09:38:49;19.10;;;5.95;;
69991;SDS011;57332;51.320;-0.580;2022-12-07T09:41:16;22.10;;;7.40;;
69991;SDS011;57332;51.320;-0.580;2022-12-07T09:43:42;16.67;;;6.53;;
69991;SDS011;57332;51.320;-0.580;2022-12-07T09:46:13;17.17;;;6.78;;
69991;SDS011;57332;51.320;-0.580;2022-12-07T09:48:42;16.80;;;7.13;;
69991;SDS011;57332;51.320;-0.580;2022-12-07T09:51:19;14.55;;;6.90;;
69991;SDS011;57332;51.320;-0.580;2022-12-07T09:53:50;12.27;;;5.38;;
69991;SDS011;57332;51.320;-0.580;2022-12-07T09:56:18;14.32;;;5.85;;
69991;SDS011;57332;51.320;-0.580;2022-12-07T09:58:46;15.73;;;5.68;;
69991;SDS011;57332;51.320;-0.580;2022-12-07T10:01:17;15.65;;;6.13;;
69991;SDS011;57332;51.320;-0.580;2022-12-07T10:03:55;20.00;;;7.93;;
69991;SDS011;57332;51.320;-0.580;2022-12-07T10:06:25;16.98;;;6.32;;
69991;SDS011;57332;51.320;-0.580;2022-12-07T10:08:51;16.15;;;5.30;;
69991;SDS011;57332;51.320;-0.580;2022-12-07T10:11:18;13.77;;;5.78;;
69991;SDS011;57332;51.320;-0.580;2022-12-07T10:13:46;14.90;;;6.05;;
69991;SDS011;57332;51.320;-0.580;2022-12-07T10:18:52;11.73;;;4.93;;
69991;SDS011;57332;51.320;-0.580;2022-12-07T10:21:20;12.75;;;5.93;;
69991;SDS011;57332;51.320;-0.580;2022-12-07T10:24:13;15.07;;;5.20;;
69991;SDS011;57332;51.320;-0.580;2022-12-07T10:31:57;11.32;;;5.32;;
69991;SDS011;57332;51.320;-0.580;2022-12-07T10:36:51;13.35;;;5.38;;
69991;SDS011;57332;51.320;-0.580;2022-12-07T10:39:22;12.15;;;4.50;;
69991;SDS011;57332;51.320;-0.580;2022-12-07T10:41:53;14.77;;;5.68;;
69991;SDS011;57332;51.320;-0.580;2022-12-07T10:44:21;11.57;;;4.95;;
69991;SDS011;57332;51.320;-0.580;2022-12-07T10:47:01;16.00;;;6.05;;
69991;SDS011;57332;51.320;-0.580;2022-12-07T10:52:01;14.57;;;5.35;;
69991;SDS011;57332;51.320;-0.580;2022-12-07T10:57:16;15.25;;;6.43;;
69991;SDS011;57332;51.320;-0.580;2022-12-07T11:02:37;16.60;;;5.25;;
69991;SDS011;57332;51.320;-0.580;2022-12-07T11:05:19;13.50;;;5.18;;
69991;SDS011;57332;51.320;-0.580;2022-12-07T11:15:56;16.90;;;4.65;;
69991;SDS011;57332;51.320;-0.580;2022-12-07T11:18:42;10.63;;;4.55;;
69991;SDS011;57332;51.320;-0.580;2022-12-07T11:21:24;10.93;;;4.60;;
69991;SDS011;57332;51.320;-0.580;2022-12-07T11:36:51;14.13;;;4.82;;
69991;SDS011;57332;51.320;-0.580;2022-12-07T11:41:52;11.23;;;4.35;;
69991;SDS011;57332;51.320;-0.580;2022-12-07T11:46:58;11.25;;;5.00;;
69991;SDS011;57332;51.320;-0.580;2022-12-07T11:54:52;17.88;;;7.20;;
69991;SDS011;57332;51.320;-0.580;2022-12-07T11:57:43;12.02;;;4.53;;
69991;SDS011;57332;51.320;-0.580;2022-12-07T12:00:12;15.05;;;6.22;;
69991;SDS011;57332;51.320;-0.580;2022-12-07T12:07:38;9.95;;;3.60;;
69991;SDS011;57332;51.320;-0.580;2022-12-07T12:13:19;10.18;;;3.90;;
69991;SDS011;57332;51.320;-0.580;2022-12-07T12:16:18;13.57;;;5.53;;
69991;SDS011;57332;51.320;-0.580;2022-12-07T12:18:51;8.88;;;3.42;;
69991;SDS011;57332;51.320;-0.580;2022-12-07T12:21:20;9.52;;;4.40;;
69991;SDS011;57332;51.320;-0.580;2022-12-07T12:26:23;7.63;;;4.05;;
69991;SDS011;57332;51.320;-0.580;2022-12-07T12:28:54;8.95;;;3.60;;
69991;SDS011;57332;51.320;-0.580;2022-12-07T12:33:51;8.90;;;4.13;;
69991;SDS011;57332;51.320;-0.580;2022-12-07T12:36:26;11.57;;;3.60;;
69991;SDS011;57332;51.320;-0.580;2022-12-07T12:51:43;8.27;;;2.88;;
69991;SDS011;57332;51.320;-0.580;2022-12-07T12:54:12;9.43;;;4.40;;
69991;SDS011;57332;51.320;-0.580;2022-12-07T12:59:24;7.13;;;2.80;;
69991;SDS011;57332;51.320;-0.580;2022-12-07T13:04:34;7.63;;;3.30;;
69991;SDS011;57332;51.320;-0.580;2022-12-07T13:07:06;8.27;;;3.83;;
69991;SDS011;57332;51.320;-0.580;2022-12-07T13:09:35;6.82;;;3.45;;
69991;SDS011;57332;51.320;-0.580;2022-12-07T13:12:11;8.73;;;4.32;;
69991;SDS011;57332;51.320;-0.580;2022-12-07T13:17:12;10.88;;;7.07;;
69991;SDS011;57332;51.320;-0.580;2022-12-07T13:20:07;5.70;;;2.97;;
69991;SDS011;57332;51.320;-0.580;2022-12-07T13:22:43;5.47;;;2.30;;
69991;SDS011;57332;51.320;-0.580;2022-12-07T13:27:37;7.20;;;2.50;;
69991;SDS011;57332;51.320;-0.580;2022-12-07T13:30:15;7.15;;;3.15;;
69991;SDS011;57332;51.320;-0.580;2022-12-07T13:32:42;8.18;;;2.80;;
69991;SDS011;57332;51.320;-0.580;2022-12-07T13:35:33;9.27;;;2.67;;
69991;SDS011;57332;51.320;-0.580;2022-12-07T13:38:19;7.78;;;2.75;;
69991;SDS011;57332;51.320;-0.580;2022-12-07T13:43:27;7.85;;;3.53;;
69991;SDS011;57332;51.320;-0.580;2022-12-07T13:45:57;7.55;;;2.72;;
69991;SDS011;57332;51.320;-0.580;2022-12-07T13:48:28;5.95;;;2.75;;
69991;SDS011;57332;51.320;-0.580;2022-12-07T13:53:23;4.38;;;1.30;;
69991;SDS011;57332;51.320;-0.580;2022-12-07T13:55:50;3.63;;;1.65;;
69991;SDS011;57332;51.320;-0.580;2022-12-07T13:58:20;5.20;;;1.98;;
69991;SDS011;57332;51.320;-0.580;2022-12-07T14:00:48;4.13;;;1.70;;
69991;SDS011;57332;51.320;-0.580;2022-12-07T14:05:43;4.15;;;1.70;;
69991;SDS011;57332;51.320;-0.580;2022-12-07T14:10:56;3.42;;;1.70;;
69991;SDS011;57332;51.320;-0.580;2022-12-07T14:13:31;4.70;;;1.60;;
69991;SDS011;57332;51.320;-0.580;2022-12-07T14:16:01;4.65;;;1.70;;
69991;SDS011;57332;51.320;-0.580;2022-12-07T14:21:05;4.38;;;1.60;;
69991;SDS011;57332;51.320;-0.580;2022-12-07T14:23:32;4.63;;;1.70;;
69991;SDS011;57332;51.320;-0.580;2022-12-07T14:26:21;6.05;;;2.03;;
69991;SDS011;57332;51.320;-0.580;2022-12-07T14:28:46;5.38;;;1.70;;
69991;SDS011;57332;51.320;-0.580;2022-12-07T14:31:15;3.45;;;1.73;;
69991;SDS011;57332;51.320;-0.580;2022-12-07T14:33:50;3.95;;;1.90;;
69991;SDS011;57332;51.320;-0.580;2022-12-07T14:36:17;5.60;;;2.60;;
69991;SDS011;57332;51.320;-0.580;2022-12-07T14:38:44;6.53;;;2.40;;
69991;SDS011;57332;51.320;-0.580;2022-12-07T14:41:14;6.38;;;2.42;;
69991;SDS011;57332;51.320;-0.580;2022-12-07T14:44:07;7.60;;;2.70;;
69991;SDS011;57332;51.320;-0.580;2022-12-07T14:46:50;5.95;;;2.22;;
69991;SDS011;57332;51.320;-0.580;2022-12-07T14:49:37;9.70;;;3.35;;
69991;SDS011;57332;51.320;-0.580;2022-12-07T14:52:04;8.75;;;3.30;;
69991;SDS011;57332;51.320;-0.580;2022-12-07T14:54:52;29.55;;;10.23;;
69991;SDS011;57332;51.320;-0.580;2022-12-07T14:57:19;10.77;;;4.47;;
69991;SDS011;57332;51.320;-0.580;2022-12-07T14:59:46;23.55;;;8.35;;
69991;SDS011;57332;51.320;-0.580;2022-12-07T15:02:13;16.85;;;7.13;;
69991;SDS011;57332;51.320;-0.580;2022-12-07T15:04:40;13.50;;;6.13;;
69991;SDS011;57332;51.320;-0.580;2022-12-07T15:07:20;19.33;;;7.70;;
69991;SDS011;57332;51.320;-0.580;2022-12-07T15:09:48;11.13;;;4.38;;
69991;SDS011;57332;51.320;-0.580;2022-12-07T15:12:15;10.88;;;4.45;;
69991;SDS011;57332;51.320;-0.580;2022-12-07T15:14:41;7.78;;;4.07;;
69991;SDS011;57332;51.320;-0.580;2022-12-07T15:17:11;19.38;;;7.65;;
69991;SDS011;57332;51.320;-0.580;2022-12-07T15:19:53;7.07;;;3.47;;
69991;SDS011;57332;51.320;-0.580;2022-12-07T15:22:20;12.77;;;5.50;;
69991;SDS011;57332;51.320;-0.580;2022-12-07T15:24:47;12.75;;;5.65;;
69991;SDS011;57332;51.320;-0.580;2022-12-07T15:27:13;12.40;;;4.88;;
69991;SDS011;57332;51.320;-0.580;2022-12-07T15:29:40;12.23;;;5.38;;
69991;SDS011;57332;51.320;-0.580;2022-12-07T15:32:07;8.48;;;3.70;;
69991;SDS011;57332;51.320;-0.580;2022-12-07T15:34:34;7.72;;;3.33;;
69991;SDS011;57332;51.320;-0.580;2022-12-07T15:37:06;15.88;;;6.50;;
69991;SDS011;57332;51.320;-0.580;2022-12-07T15:39:33;11.75;;;5.25;;
69991;SDS011;57332;51.320;-0.580;2022-12-07T15:42:00;9.18;;;4.00;;
69991;SDS011;57332;51.320;-0.580;2022-12-07T15:44:26;9.27;;;3.72;;
69991;SDS011;57332;51.320;-0.580;2022-12-07T15:47:12;6.80;;;3.53;;
69991;SDS011;57332;51.320;-0.580;2022-12-07T15:49:39;7.88;;;3.30;;
69991;SDS011;57332;51.320;-0.580;2022-12-07T15:52:06;9.15;;;4.88;;
69991;SDS011;57332;51.320;-0.580;2022-12-07T15:54:32;9.98;;;4.82;;
69991;SDS011;57332;51.320;-0.580;2022-12-07T15:56:59;11.02;;;5.40;;
69991;SDS011;57332;51.320;-0.580;2022-12-07T15:59:27;11.15;;;4.65;;
69991;SDS011;57332;51.320;-0.580;2022-12-07T16:01:57;10.38;;;4.25;;
69991;SDS011;57332;51.320;-0.580;2022-12-07T16:04:26;7.13;;;4.03;;
69991;SDS011;57332;51.320;-0.580;2022-12-07T16:06:53;8.45;;;3.10;;
69991;SDS011;57332;51.320;-0.580;2022-12-07T16:09:20;7.97;;;3.90;;
69991;SDS011;57332;51.320;-0.580;2022-12-07T16:11:47;8.80;;;3.78;;
69991;SDS011;57332;51.320;-0.580;2022-12-07T16:14:14;11.88;;;4.97;;
69991;SDS011;57332;51.320;-0.580;2022-12-07T16:16:41;8.52;;;4.43;;
69991;SDS011;57332;51.320;-0.580;2022-12-07T16:19:08;9.43;;;4.00;;
69991;SDS011;57332;51.320;-0.580;2022-12-07T16:21:35;10.40;;;5.43;;
69991;SDS011;57332;51.320;-0.580;2022-12-07T16:24:03;9.25;;;3.90;;
69991;SDS011;57332;51.320;-0.580;2022-12-07T16:26:30;13.63;;;6.03;;
69991;SDS011;57332;51.320;-0.580;2022-12-07T16:28:57;17.33;;;8.63;;
69991;SDS011;57332;51.320;-0.580;2022-12-07T16:31:25;11.73;;;5.22;;
69991;SDS011;57332;51.320;-0.580;2022-12-07T16:33:53;17.30;;;7.82;;
69991;SDS011;57332;51.320;-0.580;2022-12-07T16:36:20;23.77;;;9.70;;
69991;SDS011;57332;51.320;-0.580;2022-12-07T16:39:08;16.92;;;7.22;;
69991;SDS011;57332;51.320;-0.580;2022-12-07T16:41:35;10.50;;;4.82;;
69991;SDS011;57332;51.320;-0.580;2022-12-07T16:44:04;13.95;;;7.03;;
69991;SDS011;57332;51.320;-0.580;2022-12-07T16:46:31;15.27;;;7.22;;
69991;SDS011;57332;51.320;-0.580;2022-12-07T16:48:59;9.95;;;4.57;;
69991;SDS011;57332;51.320;-0.580;2022-12-07T16:51:26;10.13;;;4.70;;
69991;SDS011;57332;51.320;-0.580;2022-12-07T16:53:53;13.32;;;5.32;;
69991;SDS011;57332;51.320;-0.580;2022-12-07T16:56:20;11.13;;;5.90;;
69991;SDS011;57332;51.320;-0.580;2022-12-07T16:58:47;14.25;;;6.20;;
69991;SDS011;57332;51.320;-0.580;2022-12-07T17:01:17;12.75;;;6.45;;